Time;durP1;ratioP1;P1;durP2;ratioP2;P2;SDS_P1;SDS_P2;PMS_P1;PMS_P2;Temp;Humidity;BMP_temperature;BMP_pressure;BME280_temperature;BME280_humidity;BME280_pressure;Samples;Min_cycle;Max_cycle;Signal;HPM_P1;HPM_P2
2023/01/26 00:01:50;;;;;;;;;;;17.40;63.10;;;;;;5017301;28;1043;-71
2023/01/26 00:04:16;;;;;;;;;;;17.40;63.10;;;;;;5019313;28;1243;-72
2023/01/26 00:06:41;;;;;;;;;;;17.40;63.20;;;;;;5018550;28;1058;-72
2023/01/26 00:09:10;;;;;;;;;;;17.40;63.20;;;;;;5021395;28;1287;-74
2023/01/26 00:11:35;;;;;;;;;;;17.40;63.20;;;;;;5026185;28;1344;-73
2023/01/26 00:14:00;;;;;;;;;;;17.40;63.20;;;;;;5023167;28;899;-72
2023/01/26 00:16:26;;;;;;;;;;;17.40;63.10;;;;;;5024912;28;1714;-70
2023/01/26 00:18:52;;;;;;;;;;;17.40;63.10;;;;;;5022066;28;1316;-72
2023/01/26 00:21:19;;;;;;;;;;;17.40;63.20;;;;;;5020263;28;1902;-72
2023/01/26 00:23:45;;;;;;;;;;;17.40;63.10;;;;;;5022074;28;892;-72
2023/01/26 00:26:12;;;;;;;;;;;17.40;63.20;;;;;;5020615;28;1582;-72
2023/01/26 00:28:38;;;;;;;;;;;17.40;63.20;;;;;;5021018;28;1254;-72
2023/01/26 00:31:04;;;;;;;;;;;17.40;63.20;;;;;;5022435;28;800;-71
2023/01/26 00:33:30;;;;;;;;;;;17.40;63.20;;;;;;5039420;28;911;-71
2023/01/26 00:35:55;;;;;;;;;;;17.40;63.20;;;;;;5023591;28;1366;-71
2023/01/26 00:38:21;;;;;;;;;;;17.40;63.20;;;;;;5038045;28;1304;-72
2023/01/26 00:40:46;;;;;;;;;;;17.40;63.30;;;;;;5021373;28;1964;-70
2023/01/26 00:43:12;;;;;;;;;;;17.40;63.30;;;;;;5022004;28;864;-70
2023/01/26 00:45:37;;;;;;;;;;;17.40;63.30;;;;;;5052577;28;859;-70
2023/01/26 00:48:02;;;;;;;;;;;17.40;63.30;;;;;;5053998;28;1271;-69
2023/01/26 00:50:28;;;;;;;;;;;17.40;63.30;;;;;;5022418;28;871;-71
2023/01/26 00:52:54;;;;;;;;;;;17.40;63.30;;;;;;5029977;28;1213;-71
2023/01/26 00:55:19;;;;;;;;;;;17.40;63.30;;;;;;5020719;28;793;-70
2023/01/26 00:57:44;;;;;;;;;;;17.40;63.30;;;;;;5023735;28;1280;-70
2023/01/26 01:00:15;;;;;;;;;;;17.40;63.30;;;;;;5021735;28;1956;-72
2023/01/26 01:02:41;;;;;;;;;;;17.40;64.10;;;;;;5023342;28;895;-71
2023/01/26 01:05:07;;;;;;;;;;;17.40;63.40;;;;;;5051691;28;1291;-69
2023/01/26 01:07:32;;;;;;;;;;;17.40;63.30;;;;;;5022737;28;1272;-71
2023/01/26 01:09:59;;;;;;;;;;;17.40;63.40;;;;;;5020127;28;866;-70
2023/01/26 01:12:25;;;;;;;;;;;17.40;63.40;;;;;;5019775;28;840;-70
2023/01/26 01:14:50;;;;;;;;;;;17.40;63.40;;;;;;5034645;28;946;-70
2023/01/26 01:17:16;;;;;;;;;;;17.30;63.30;;;;;;5019619;28;1338;-70
2023/01/26 01:19:41;;;;;;;;;;;17.40;63.40;;;;;;5019842;28;1914;-70
2023/01/26 01:22:07;;;;;;;;;;;17.40;63.40;;;;;;5023164;28;864;-70
2023/01/26 01:24:34;;;;;;;;;;;17.40;63.40;;;;;;5020774;28;860;-70
2023/01/26 01:26:59;;;;;;;;;;;17.40;63.40;;;;;;5025182;28;824;-70
2023/01/26 01:29:25;;;;;;;;;;;17.30;63.30;;;;;;5052416;28;1392;-70
2023/01/26 01:31:50;;;;;;;;;;;17.40;63.40;;;;;;5051884;28;1292;-70
2023/01/26 01:34:16;;;;;;;;;;;17.40;63.40;;;;;;5022090;28;1332;-70
2023/01/26 01:36:41;;;;;;;;;;;17.40;63.40;;;;;;5020412;28;907;-70
2023/01/26 01:39:07;;;;;;;;;;;17.40;63.40;;;;;;5053983;28;1910;-70
2023/01/26 01:41:32;;;;;;;;;;;17.30;63.30;;;;;;5021401;28;906;-70
2023/01/26 01:44:18;;;;;;;;;;;17.40;63.40;;;;;;5024254;28;1026;-70
2023/01/26 01:46:49;;;;;;;;;;;17.30;63.30;;;;;;5020830;28;991;-70
2023/01/26 01:49:19;;;;;;;;;;;17.30;63.30;;;;;;5018744;28;1358;-70
2023/01/26 01:51:49;;;;;;;;;;;17.40;63.40;;;;;;5018960;28;963;-70
2023/01/26 01:54:15;;;;;;;;;;;17.40;63.50;;;;;;5050043;28;863;-70
2023/01/26 01:56:41;;;;;;;;;;;17.40;63.50;;;;;;5019145;28;993;-72
2023/01/26 01:59:07;;;;;;;;;;;17.30;63.40;;;;;;5022970;28;1894;-72
2023/01/26 02:01:32;;;;;;;;;;;17.40;63.50;;;;;;5019856;28;951;-72
2023/01/26 02:03:59;;;;;;;;;;;17.30;63.40;;;;;;5034888;28;974;-72
2023/01/26 02:06:35;;;;;;;;;;;17.30;63.40;;;;;;5036168;28;1330;-73
2023/01/26 02:09:00;;;;;;;;;;;17.30;63.40;;;;;;5052315;28;1371;-72
2023/01/26 02:11:27;;;;;;;;;;;17.30;63.40;;;;;;5054211;28;808;-71
2023/01/26 02:13:53;;;;;;;;;;;17.30;63.40;;;;;;5032636;28;824;-72
2023/01/26 02:16:18;;;;;;;;;;;17.30;63.40;;;;;;5018881;28;1261;-71
2023/01/26 02:18:44;;;;;;;;;;;17.30;63.40;;;;;;5022432;28;1439;-70
2023/01/26 02:21:10;;;;;;;;;;;17.30;63.50;;;;;;5035593;28;1910;-71
2023/01/26 02:23:45;;;;;;;;;;;17.30;63.40;;;;;;5051983;28;812;-71
2023/01/26 02:26:23;;;;;;;;;;;17.30;63.50;;;;;;5019047;28;844;-73
2023/01/26 02:28:49;;;;;;;;;;;17.30;63.50;;;;;;5022871;28;1221;-71
2023/01/26 02:31:14;;;;;;;;;;;17.30;63.40;;;;;;5020921;28;1050;-71
2023/01/26 02:33:40;;;;;;;;;;;17.30;63.40;;;;;;5025186;28;797;-71
2023/01/26 02:36:05;;;;;;;;;;;17.30;63.50;;;;;;5053232;28;928;-71
2023/01/26 02:38:41;;;;;;;;;;;17.30;63.50;;;;;;5020965;28;1241;-71
2023/01/26 02:41:07;;;;;;;;;;;17.30;63.50;;;;;;5049473;28;1926;-71
2023/01/26 02:43:33;;;;;;;;;;;17.30;63.50;;;;;;5051242;28;951;-71
2023/01/26 02:45:58;;;;;;;;;;;17.30;63.40;;;;;;5051196;28;957;-71
2023/01/26 02:51:07;;;;;;;;;;;17.30;63.50;;;;;;5018309;28;818;-71
2023/01/26 02:53:33;;;;;;;;;;;17.30;63.50;;;;;;5017649;28;793;-71
2023/01/26 02:55:58;;;;;;;;;;;17.30;63.50;;;;;;5019558;28;1054;-71
2023/01/26 02:58:24;;;;;;;;;;;17.30;63.50;;;;;;5053126;28;1232;-71
2023/01/26 03:00:49;;;;;;;;;;;17.30;63.50;;;;;;5046444;28;1910;-72
2023/01/26 03:03:25;;;;;;;;;;;17.30;63.50;;;;;;5052113;28;1007;-72
2023/01/26 03:05:51;;;;;;;;;;;17.30;63.50;;;;;;5015526;28;1291;-72
2023/01/26 03:08:16;;;;;;;;;;;17.30;63.50;;;;;;5052662;28;1329;-72
2023/01/26 03:10:42;;;;;;;;;;;17.30;63.50;;;;;;5017526;28;1078;-71
2023/01/26 03:13:07;;;;;;;;;;;17.30;63.60;;;;;;5052593;28;807;-71
2023/01/26 03:15:42;;;;;;;;;;;17.30;63.50;;;;;;5018928;28;827;-72
2023/01/26 03:29:09;;;;;;;;;;;17.30;63.60;;;;;;5018138;28;1435;-72
2023/01/26 03:31:34;;;;;;;;;;;17.30;63.60;;;;;;5019492;28;876;-72
2023/01/26 03:34:00;;;;;;;;;;;17.30;63.60;;;;;;5027993;28;1155;-72
2023/01/26 03:36:25;;;;;;;;;;;17.30;63.60;;;;;;5018713;28;1252;-72
2023/01/26 03:38:51;;;;;;;;;;;17.30;63.60;;;;;;5018237;28;1336;-72
2023/01/26 03:57:41;;;;;;;;;;;17.30;63.60;;;;;;5018319;28;1390;-72
2023/01/26 04:00:07;;;;;;;;;;;17.30;63.60;;;;;;5033291;28;1977;-72
2023/01/26 04:08:23;;;;;;;;;;;17.30;63.60;;;;;;5016704;28;1378;-72
2023/01/26 04:10:50;;;;;;;;;;;17.30;63.60;;;;;;5047804;28;868;-72
2023/01/26 04:21:30;;;;;;;;;;;17.30;63.60;;;;;;5046936;28;1967;-72
2023/01/26 04:23:56;;;;;;;;;;;17.30;63.60;;;;;;5021482;28;934;-73
2023/01/26 04:26:22;;;;;;;;;;;17.30;63.60;;;;;;5018348;28;1316;-72
2023/01/26 04:28:47;;;;;;;;;;;17.30;63.60;;;;;;5020610;28;1279;-73
2023/01/26 04:31:15;;;;;;;;;;;17.30;63.60;;;;;;5019986;28;883;-72
2023/01/26 04:33:40;;;;;;;;;;;17.30;63.60;;;;;;5026087;28;871;-72
2023/01/26 04:36:06;;;;;;;;;;;17.30;63.60;;;;;;5036869;28;1358;-73
2023/01/26 04:38:31;;;;;;;;;;;17.30;63.60;;;;;;5019457;28;1358;-72
2023/01/26 04:40:57;;;;;;;;;;;17.30;63.60;;;;;;5017951;28;2010;-73
2023/01/26 04:43:22;;;;;;;;;;;17.30;63.60;;;;;;5050556;28;804;-72
2023/01/26 04:45:58;;;;;;;;;;;17.20;63.60;;;;;;5017860;28;921;-72
2023/01/26 04:48:23;;;;;;;;;;;17.30;63.60;;;;;;5020597;28;1779;-72
2023/01/26 04:50:52;;;;;;;;;;;17.30;63.60;;;;;;5016684;28;836;-72
2023/01/26 04:53:17;;;;;;;;;;;17.30;63.60;;;;;;5033782;28;1160;-73
2023/01/26 04:55:43;;;;;;;;;;;17.30;63.60;;;;;;5020663;28;913;-72
2023/01/26 04:58:08;;;;;;;;;;;17.30;63.60;;;;;;5028618;28;1330;-72
2023/01/26 05:00:34;;;;;;;;;;;17.30;63.60;;;;;;5023087;28;1959;-72
2023/01/26 05:02:59;;;;;;;;;;;17.30;63.70;;;;;;5022957;28;1003;-72
2023/01/26 05:05:25;;;;;;;;;;;17.30;63.60;;;;;;5022099;28;1305;-72
2023/01/26 05:07:52;;;;;;;;;;;17.30;63.60;;;;;;5053895;28;1283;-72
2023/01/26 05:10:17;;;;;;;;;;;17.30;63.60;;;;;;5022267;28;902;-72
2023/01/26 05:12:43;;;;;;;;;;;17.30;63.50;;;;;;5020966;28;995;-72
2023/01/26 05:15:08;;;;;;;;;;;17.30;63.50;;;;;;5020253;28;864;-72
2023/01/26 05:17:35;;;;;;;;;;;17.30;63.40;;;;;;5020489;28;1324;-72
2023/01/26 05:20:00;;;;;;;;;;;17.40;63.30;;;;;;5019960;28;1973;-71
2023/01/26 05:22:26;;;;;;;;;;;17.40;63.10;;;;;;5021042;28;815;-73
2023/01/26 05:24:52;;;;;;;;;;;17.50;63.10;;;;;;5023984;28;879;-72
2023/01/26 05:27:20;;;;;;;;;;;17.50;62.90;;;;;;5020400;28;1365;-72
2023/01/26 05:29:46;;;;;;;;;;;17.50;62.80;;;;;;5017885;28;998;-72
2023/01/26 05:32:11;;;;;;;;;;;17.60;62.70;;;;;;5035028;28;879;-72
2023/01/26 05:34:37;;;;;;;;;;;17.60;62.50;;;;;;5021227;28;1385;-72
2023/01/26 05:37:02;;;;;;;;;;;17.60;62.40;;;;;;5021795;28;1010;-72
2023/01/26 05:39:28;;;;;;;;;;;17.60;62.30;;;;;;5023189;28;1898;-72
2023/01/26 05:41:55;;;;;;;;;;;17.70;62.20;;;;;;5024076;28;927;-72
2023/01/26 05:44:21;;;;;;;;;;;17.70;62.10;;;;;;5018249;28;881;-73
2023/01/26 05:46:47;;;;;;;;;;;17.70;62.00;;;;;;5022081;28;854;-72
2023/01/26 05:49:12;;;;;;;;;;;17.70;61.90;;;;;;5021870;28;2233;-70
2023/01/26 05:51:37;;;;;;;;;;;17.80;61.90;;;;;;5031786;28;1902;-68
2023/01/26 05:54:03;;;;;;;;;;;17.80;61.90;;;;;;5022469;28;1465;-68
2023/01/26 05:56:29;;;;;;;;;;;17.80;61.80;;;;;;5024584;28;1384;-69
2023/01/26 05:58:54;;;;;;;;;;;17.80;61.80;;;;;;5018369;28;1261;-70
2023/01/26 06:01:19;;;;;;;;;;;17.80;61.70;;;;;;5018373;28;1973;-69
2023/01/26 06:03:45;;;;;;;;;;;17.80;61.70;;;;;;5021557;28;1341;-70
2023/01/26 06:06:10;;;;;;;;;;;17.80;62.50;;;;;;5020055;28;920;-69
2023/01/26 06:08:36;;;;;;;;;;;17.80;61.70;;;;;;5022211;28;1307;-69
2023/01/26 06:11:01;;;;;;;;;;;17.80;61.60;;;;;;5032267;28;1285;-69
2023/01/26 06:13:27;;;;;;;;;;;17.80;61.60;;;;;;5020007;28;812;-70
2023/01/26 06:15:52;;;;;;;;;;;17.80;61.60;;;;;;5019183;28;1351;-71
2023/01/26 06:18:18;;;;;;;;;;;17.80;61.60;;;;;;5019913;28;1256;-70
2023/01/26 06:20:43;;;;;;;;;;;17.80;61.60;;;;;;5020221;28;1914;-72
2023/01/26 06:23:10;;;;;;;;;;;17.80;61.60;;;;;;5053801;28;821;-70
2023/01/26 06:25:38;;;;;;;;;;;17.80;61.50;;;;;;5019062;28;911;-69
2023/01/26 06:28:04;;;;;;;;;;;17.80;61.50;;;;;;5019460;28;1296;-70
2023/01/26 06:30:29;;;;;;;;;;;17.80;61.60;;;;;;5022666;28;923;-69
2023/01/26 06:32:55;;;;;;;;;;;17.80;61.50;;;;;;5018722;28;754;-71
2023/01/26 06:35:20;;;;;;;;;;;17.80;61.50;;;;;;5026882;28;1631;-72
2023/01/26 06:37:49;;;;;;;;;;;17.80;61.50;;;;;;5017169;28;1277;-72
2023/01/26 06:40:15;;;;;;;;;;;17.90;61.60;;;;;;5020391;28;1965;-72
2023/01/26 06:42:45;;;;;;;;;;;17.90;61.50;;;;;;5019143;28;895;-70
2023/01/26 06:45:11;;;;;;;;;;;17.80;61.50;;;;;;5026628;28;888;-71
2023/01/26 06:47:36;;;;;;;;;;;17.80;62.30;;;;;;5023952;28;1290;-69
2023/01/26 06:50:02;;;;;;;;;;;17.80;61.50;;;;;;5021026;28;888;-70
2023/01/26 06:52:31;;;;;;;;;;;17.80;61.50;;;;;;5019367;28;894;-72
2023/01/26 06:54:57;;;;;;;;;;;17.80;61.50;;;;;;5021580;28;941;-72
2023/01/26 06:57:22;;;;;;;;;;;17.90;61.50;;;;;;5021735;28;1236;-72
2023/01/26 06:59:48;;;;;;;;;;;17.90;61.50;;;;;;5021339;28;1894;-71
2023/01/26 07:02:17;;;;;;;;;;;17.90;61.60;;;;;;5019114;28;1037;-71
2023/01/26 07:04:42;;;;;;;;;;;17.90;61.60;;;;;;5048576;28;1358;-72
2023/01/26 07:07:08;;;;;;;;;;;17.90;61.50;;;;;;5020540;28;1238;-72
2023/01/26 07:09:33;;;;;;;;;;;17.90;61.60;;;;;;5017182;28;923;-72
2023/01/26 07:11:59;;;;;;;;;;;17.90;61.50;;;;;;5035648;28;2572;-72
2023/01/26 07:14:24;;;;;;;;;;;17.90;61.50;;;;;;5018207;28;851;-72
2023/01/26 07:16:50;;;;;;;;;;;17.90;61.50;;;;;;5029615;28;920;-72
2023/01/26 07:19:15;;;;;;;;;;;17.90;61.50;;;;;;5021173;28;1362;-72
2023/01/26 07:21:41;;;;;;;;;;;17.90;61.50;;;;;;5019094;28;1898;-72
2023/01/26 07:24:07;;;;;;;;;;;17.90;61.50;;;;;;5020555;28;936;-72
2023/01/26 07:26:33;;;;;;;;;;;17.90;61.50;;;;;;5019540;28;828;-72
2023/01/26 07:28:58;;;;;;;;;;;17.90;61.60;;;;;;5019821;28;1343;-72
2023/01/26 07:31:23;;;;;;;;;;;17.90;61.60;;;;;;5021301;28;880;-72
2023/01/26 07:33:49;;;;;;;;;;;17.80;61.50;;;;;;5031499;28;1279;-72
2023/01/26 07:36:14;;;;;;;;;;;17.80;61.50;;;;;;5018923;28;973;-72
2023/01/26 07:38:40;;;;;;;;;;;17.80;61.50;;;;;;5018222;28;1250;-72
2023/01/26 07:41:06;;;;;;;;;;;17.80;61.50;;;;;;5020105;28;1955;-72
2023/01/26 07:43:33;;;;;;;;;;;17.80;61.60;;;;;;5049495;28;853;-72
2023/01/26 07:45:58;;;;;;;;;;;17.80;61.50;;;;;;5050636;28;930;-72
2023/01/26 07:48:24;;;;;;;;;;;17.80;61.60;;;;;;5019389;28;1326;-72
2023/01/26 07:50:49;;;;;;;;;;;17.80;61.60;;;;;;5017357;28;808;-72
2023/01/26 07:53:18;;;;;;;;;;;17.80;61.60;;;;;;5018360;28;862;-72
2023/01/26 07:55:43;;;;;;;;;;;17.80;61.60;;;;;;5019713;28;918;-72
2023/01/26 07:58:09;;;;;;;;;;;17.80;61.60;;;;;;5034252;28;1349;-70
2023/01/26 08:00:34;;;;;;;;;;;17.80;61.70;;;;;;5018709;28;1910;-72
2023/01/26 08:03:00;;;;;;;;;;;17.80;61.70;;;;;;5019108;28;1490;-71
2023/01/26 08:05:25;;;;;;;;;;;17.80;61.70;;;;;;5017771;28;1273;-71
2023/01/26 08:07:51;;;;;;;;;;;17.80;61.80;;;;;;5019004;28;1283;-71
2023/01/26 08:10:17;;;;;;;;;;;17.80;61.70;;;;;;5017092;28;1081;-71
2023/01/26 08:12:42;;;;;;;;;;;17.80;61.80;;;;;;5018949;28;1204;-72
2023/01/26 08:15:08;;;;;;;;;;;17.80;61.80;;;;;;5017527;28;901;-71
2023/01/26 08:17:33;;;;;;;;;;;17.80;61.80;;;;;;5017385;28;1362;-71
2023/01/26 08:19:59;;;;;;;;;;;17.80;61.80;;;;;;5047565;28;1934;-71
2023/01/26 08:22:24;;;;;;;;;;;17.80;62.50;;;;;;5016051;28;852;-71
2023/01/26 08:24:50;;;;;;;;;;;17.80;61.80;;;;;;5048065;28;894;-71
2023/01/26 08:27:16;;;;;;;;;;;17.80;61.80;;;;;;5023322;28;1316;-71
2023/01/26 08:29:41;;;;;;;;;;;17.80;61.80;;;;;;5019565;28;885;-71
2023/01/26 08:32:07;;;;;;;;;;;17.80;61.80;;;;;;5053875;28;1068;-71
2023/01/26 08:34:33;;;;;;;;;;;17.80;61.80;;;;;;5023470;28;852;-71
2023/01/26 08:36:59;;;;;;;;;;;17.80;61.70;;;;;;5020325;28;785;-70
2023/01/26 08:39:24;;;;;;;;;;;17.80;61.80;;;;;;5019128;28;1922;-71
2023/01/26 08:41:49;;;;;;;;;;;17.80;61.80;;;;;;5024091;28;836;-71
2023/01/26 08:44:15;;;;;;;;;;;17.80;61.80;;;;;;5022745;28;887;-71
2023/01/26 08:46:42;;;;;;;;;;;17.80;61.80;;;;;;5022066;28;794;-71
2023/01/26 08:49:08;;;;;;;;;;;17.80;61.80;;;;;;5057093;28;1351;-71
2023/01/26 08:51:33;;;;;;;;;;;17.80;61.80;;;;;;5023425;28;908;-71
2023/01/26 08:53:58;;;;;;;;;;;17.80;61.70;;;;;;5019951;28;869;-71
2023/01/26 08:56:24;;;;;;;;;;;17.80;61.70;;;;;;5018938;28;912;-71
2023/01/26 08:58:49;;;;;;;;;;;17.80;61.70;;;;;;5019104;28;1321;-71
2023/01/26 09:01:15;;;;;;;;;;;17.80;61.70;;;;;;5022981;28;1914;-71
2023/01/26 09:03:40;;;;;;;;;;;17.80;61.70;;;;;;5020619;28;1352;-71
2023/01/26 09:06:06;;;;;;;;;;;17.80;61.70;;;;;;5051918;28;1132;-71
2023/01/26 09:08:32;;;;;;;;;;;17.80;61.60;;;;;;5049056;28;1274;-71
2023/01/26 09:10:58;;;;;;;;;;;17.80;61.70;;;;;;5022472;28;806;-71
2023/01/26 09:13:23;;;;;;;;;;;17.80;61.60;;;;;;5023758;28;879;-71
2023/01/26 09:15:49;;;;;;;;;;;17.80;61.60;;;;;;5024788;28;813;-71
2023/01/26 09:18:14;;;;;;;;;;;17.80;61.60;;;;;;5019994;28;1320;-71
2023/01/26 09:20:39;;;;;;;;;;;17.80;61.60;;;;;;5019187;28;1967;-71
2023/01/26 09:23:05;;;;;;;;;;;17.80;61.60;;;;;;5022349;28;935;-71
2023/01/26 09:25:31;;;;;;;;;;;17.80;61.60;;;;;;5052395;28;1352;-71
2023/01/26 09:27:56;;;;;;;;;;;17.80;61.50;;;;;;5020947;28;1348;-71
2023/01/26 09:30:23;;;;;;;;;;;17.90;61.60;;;;;;5019307;28;872;-71
2023/01/26 09:32:49;;;;;;;;;;;17.80;61.50;;;;;;5021454;28;927;-71
2023/01/26 09:35:15;;;;;;;;;;;17.80;61.50;;;;;;5021193;28;1490;-71
2023/01/26 09:37:41;;;;;;;;;;;17.90;61.50;;;;;;5022076;28;1260;-71
2023/01/26 09:40:08;;;;;;;;;;;17.90;61.50;;;;;;5023596;28;1955;-71
2023/01/26 09:42:36;;;;;;;;;;;17.90;61.50;;;;;;5022406;28;1241;-71
2023/01/26 09:45:14;;;;;;;;;;;17.80;61.40;;;;;;5024126;28;912;-71
2023/01/26 09:47:49;;;;;;;;;;;17.90;61.50;;;;;;5024545;28;1358;-69
2023/01/26 09:50:18;;;;;;;;;;;17.90;61.50;;;;;;5019940;28;849;-70
2023/01/26 09:52:47;;;;;;;;;;;17.90;61.50;;;;;;5022340;28;1458;-71
2023/01/26 09:55:13;;;;;;;;;;;17.90;61.50;;;;;;5017956;28;2184;-69
2023/01/26 09:57:39;;;;;;;;;;;17.90;61.50;;;;;;5052249;28;1397;-70
2023/01/26 10:00:11;;;;;;;;;;;17.90;61.50;;;;;;5029344;28;1883;-70
2023/01/26 10:02:54;;;;;;;;;;;17.90;61.50;;;;;;5021805;28;2111;-70
2023/01/26 10:05:32;;;;;;;;;;;17.90;61.50;;;;;;5021727;28;1945;-69
2023/01/26 10:07:57;;;;;;;;;;;17.80;61.40;;;;;;5020892;28;1385;-69
2023/01/26 10:10:25;;;;;;;;;;;17.90;61.50;;;;;;5055937;28;886;-69
2023/01/26 10:12:50;;;;;;;;;;;17.90;61.50;;;;;;5017537;28;856;-69
2023/01/26 10:15:22;;;;;;;;;;;17.90;61.50;;;;;;5022176;28;862;-69
2023/01/26 10:17:47;;;;;;;;;;;17.90;61.50;;;;;;5020713;28;1279;-70
2023/01/26 10:20:31;;;;;;;;;;;17.80;61.50;;;;;;5018840;28;1906;-69
2023/01/26 10:22:58;;;;;;;;;;;17.80;61.50;;;;;;5019892;28;883;-69
2023/01/26 10:25:28;;;;;;;;;;;17.80;61.50;;;;;;5021922;28;879;-69
2023/01/26 10:27:54;;;;;;;;;;;17.80;61.50;;;;;;5020329;28;1244;-70
2023/01/26 10:30:20;;;;;;;;;;;17.80;61.50;;;;;;5022697;28;844;-70
2023/01/26 10:32:45;;;;;;;;;;;17.80;61.50;;;;;;5055095;28;808;-69
2023/01/26 10:35:18;;;;;;;;;;;17.80;61.50;;;;;;5018909;28;879;-69
2023/01/26 10:37:44;;;;;;;;;;;17.80;61.50;;;;;;5018104;28;1260;-69
2023/01/26 10:40:09;;;;;;;;;;;17.80;61.50;;;;;;5021632;28;1971;-69
2023/01/26 10:42:35;;;;;;;;;;;17.80;61.50;;;;;;5023388;28;892;-69
2023/01/26 10:45:05;;;;;;;;;;;17.80;61.50;;;;;;5019456;28;774;-69
2023/01/26 10:47:30;;;;;;;;;;;17.80;61.50;;;;;;5016934;28;2199;-69
2023/01/26 10:50:12;;;;;;;;;;;17.80;61.60;;;;;;5017973;28;1249;-70
2023/01/26 10:52:37;;;;;;;;;;;17.90;62.20;;;;;;5026268;28;1341;-69
2023/01/26 10:55:09;;;;;;;;;;;17.90;62.30;;;;;;5018508;28;1414;-70
2023/01/26 10:57:36;;;;;;;;;;;17.90;62.30;;;;;;5019510;28;1330;-69
2023/01/26 11:00:06;;;;;;;;;;;18.00;62.00;;;;;;5015711;28;1962;-70
2023/01/26 11:02:32;;;;;;;;;;;18.10;61.70;;;;;;5019172;28;2229;-70
2023/01/26 11:05:07;;;;;;;;;;;18.10;61.70;;;;;;5019407;28;1847;-70
2023/01/26 11:07:37;;;;;;;;;;;18.10;61.20;;;;;;5020498;28;1343;-70
2023/01/26 11:10:21;;;;;;;;;;;18.10;61.10;;;;;;5020328;28;1306;-71
2023/01/26 11:12:47;;;;;;;;;;;18.10;61.00;;;;;;5021816;28;841;-70
2023/01/26 11:15:16;;;;;;;;;;;18.10;61.00;;;;;;5049566;28;899;-70
2023/01/26 11:18:02;;;;;;;;;;;18.10;60.90;;;;;;5033161;28;1362;-70
2023/01/26 11:20:45;;;;;;;;;;;18.10;60.90;;;;;;5016654;28;1985;-70
2023/01/26 11:23:12;;;;;;;;;;;18.10;60.90;;;;;;5048844;28;887;-70
2023/01/26 11:25:41;;;;;;;;;;;18.10;61.00;;;;;;5035558;28;846;-71
2023/01/26 11:28:10;;;;;;;;;;;18.10;60.90;;;;;;5023195;28;1286;-70
2023/01/26 11:30:38;;;;;;;;;;;18.10;60.80;;;;;;5018723;28;896;-71
2023/01/26 11:33:06;;;;;;;;;;;18.10;60.80;;;;;;5021210;28;837;-70
2023/01/26 11:35:34;;;;;;;;;;;18.10;60.80;;;;;;5020047;28;975;-70
2023/01/26 11:38:09;;;;;;;;;;;18.20;60.90;;;;;;5019788;28;1270;-70
2023/01/26 11:40:39;;;;;;;;;;;18.20;60.90;;;;;;5026818;28;1959;-70
2023/01/26 11:43:21;;;;;;;;;;;18.10;60.80;;;;;;5043568;28;1225;-70
2023/01/26 11:45:50;;;;;;;;;;;18.10;60.80;;;;;;5019429;28;824;-71
2023/01/26 11:48:34;;;;;;;;;;;18.10;60.80;;;;;;5016185;28;1267;-70
2023/01/26 11:51:19;;;;;;;;;;;18.10;60.90;;;;;;5018795;28;938;-70
2023/01/26 11:53:44;;;;;;;;;;;18.10;60.90;;;;;;5052182;28;1026;-71
2023/01/26 11:56:19;;;;;;;;;;;18.10;60.80;;;;;;5017621;28;886;-73
2023/01/26 11:58:50;;;;;;;;;;;18.10;60.90;;;;;;5020963;28;1269;-71
2023/01/26 12:01:27;;;;;;;;;;;18.10;60.90;;;;;;5021600;28;1973;-71
2023/01/26 12:03:53;;;;;;;;;;;18.10;60.90;;;;;;5017941;28;1312;-71
2023/01/26 12:06:24;;;;;;;;;;;18.10;60.90;;;;;;5021310;28;912;-72
2023/01/26 12:08:55;;;;;;;;;;;18.10;60.90;;;;;;5021252;28;1415;-71
2023/01/26 12:11:39;;;;;;;;;;;18.10;60.90;;;;;;5025301;28;2076;-72
2023/01/26 12:14:25;;;;;;;;;;;18.10;60.90;;;;;;5022761;28;1027;-70
2023/01/26 12:17:02;;;;;;;;;;;18.10;61.00;;;;;;5019388;28;1123;-71
2023/01/26 12:19:34;;;;;;;;;;;18.10;61.00;;;;;;5022593;28;1258;-72
2023/01/26 12:22:01;;;;;;;;;;;18.10;61.00;;;;;;5027447;28;1346;-71
2023/01/26 12:24:32;;;;;;;;;;;18.10;61.00;;;;;;5052936;28;835;-72
2023/01/26 12:26:58;;;;;;;;;;;18.00;60.90;;;;;;5039001;28;1058;-71
2023/01/26 12:29:25;;;;;;;;;;;18.00;61.00;;;;;;5059858;28;1258;-71
2023/01/26 12:31:57;;;;;;;;;;;18.00;61.00;;;;;;5020788;28;899;-71
2023/01/26 12:34:24;;;;;;;;;;;18.10;61.10;;;;;;5057054;28;1319;-71
2023/01/26 12:37:00;;;;;;;;;;;18.00;61.10;;;;;;5052114;28;832;-71
2023/01/26 12:39:25;;;;;;;;;;;18.00;61.10;;;;;;5020952;28;1204;-71
2023/01/26 12:41:51;;;;;;;;;;;18.00;61.10;;;;;;5022691;28;1977;-71
2023/01/26 12:44:16;;;;;;;;;;;18.00;61.20;;;;;;5023679;28;898;-71
2023/01/26 12:46:43;;;;;;;;;;;18.00;61.20;;;;;;5022244;28;853;-71
2023/01/26 12:49:12;;;;;;;;;;;18.00;61.30;;;;;;5020983;28;1267;-71
2023/01/26 12:51:39;;;;;;;;;;;18.00;61.40;;;;;;5030005;28;882;-71
2023/01/26 12:54:12;;;;;;;;;;;17.90;61.30;;;;;;5053567;28;840;-71
2023/01/26 12:56:39;;;;;;;;;;;17.90;61.40;;;;;;5024832;28;1031;-71
2023/01/26 12:59:12;;;;;;;;;;;17.90;61.40;;;;;;5024047;28;1212;-73
2023/01/26 13:01:38;;;;;;;;;;;17.90;61.40;;;;;;5053926;28;1894;-69
2023/01/26 13:04:07;;;;;;;;;;;17.90;61.40;;;;;;5023495;28;898;-71
2023/01/26 13:06:32;;;;;;;;;;;17.90;61.40;;;;;;5028815;28;924;-71
2023/01/26 13:09:03;;;;;;;;;;;17.90;61.40;;;;;;5022226;28;1398;-70
2023/01/26 13:11:37;;;;;;;;;;;17.90;61.40;;;;;;5035175;28;1363;-70
2023/01/26 13:14:16;;;;;;;;;;;17.90;61.30;;;;;;5019593;28;955;-70
2023/01/26 13:16:42;;;;;;;;;;;17.90;61.30;;;;;;5052707;28;1562;-70
2023/01/26 13:19:08;;;;;;;;;;;17.90;61.30;;;;;;5018364;28;1289;-70
2023/01/26 13:21:41;;;;;;;;;;;17.90;61.30;;;;;;5056006;28;1965;-70
2023/01/26 13:24:15;;;;;;;;;;;18.00;61.30;;;;;;5018622;28;1818;-70
2023/01/26 13:26:41;;;;;;;;;;;18.00;61.20;;;;;;5019996;28;907;-70
2023/01/26 13:29:21;;;;;;;;;;;18.00;61.20;;;;;;5023960;28;1262;-70
2023/01/26 13:31:47;;;;;;;;;;;18.00;61.20;;;;;;5018832;28;1616;-70
2023/01/26 13:34:12;;;;;;;;;;;18.00;61.10;;;;;;5017776;28;997;-70
2023/01/26 13:36:38;;;;;;;;;;;18.00;61.20;;;;;;5021358;28;955;-69
2023/01/26 13:39:11;;;;;;;;;;;18.00;61.10;;;;;;5057095;28;1371;-70
2023/01/26 13:41:42;;;;;;;;;;;18.00;61.10;;;;;;5020130;28;1961;-71
2023/01/26 13:44:16;;;;;;;;;;;18.00;61.10;;;;;;5053224;28;1010;-70
2023/01/26 13:46:42;;;;;;;;;;;18.00;61.10;;;;;;5053210;28;867;-70
2023/01/26 13:49:26;;;;;;;;;;;18.00;61.10;;;;;;5052725;28;1260;-70
2023/01/26 13:51:52;;;;;;;;;;;18.00;61.20;;;;;;5017317;28;1270;-72
2023/01/26 13:54:17;;;;;;;;;;;18.00;61.10;;;;;;5020434;28;943;-71
2023/01/26 13:56:57;;;;;;;;;;;18.00;61.10;;;;;;5020488;28;888;-70
2023/01/26 13:59:23;;;;;;;;;;;18.00;61.10;;;;;;5020520;28;1306;-70
2023/01/26 14:01:52;;;;;;;;;;;18.00;61.10;;;;;;5052288;28;1895;-71
2023/01/26 14:04:21;;;;;;;;;;;18.00;61.10;;;;;;5022216;28;1309;-70
2023/01/26 14:07:05;;;;;;;;;;;18.00;61.10;;;;;;5016595;28;1098;-69
2023/01/26 14:09:32;;;;;;;;;;;18.00;61.10;;;;;;5018409;28;1306;-71
2023/01/26 14:11:58;;;;;;;;;;;18.00;61.20;;;;;;5022650;28;904;-71
2023/01/26 14:14:27;;;;;;;;;;;18.00;61.10;;;;;;5023653;28;817;-73
2023/01/26 14:16:53;;;;;;;;;;;18.00;61.10;;;;;;5037777;28;1541;-72
2023/01/26 14:19:19;;;;;;;;;;;18.00;61.10;;;;;;5024767;28;1386;-72
2023/01/26 14:21:45;;;;;;;;;;;18.00;61.10;;;;;;5018613;28;1907;-72
2023/01/26 14:24:10;;;;;;;;;;;18.00;61.10;;;;;;5020714;28;788;-71
2023/01/26 14:26:36;;;;;;;;;;;18.00;61.10;;;;;;5018718;28;888;-74
2023/01/26 14:29:02;;;;;;;;;;;18.00;61.10;;;;;;5019163;28;1349;-72
2023/01/26 14:31:27;;;;;;;;;;;18.00;61.10;;;;;;5018949;28;918;-72
2023/01/26 14:33:56;;;;;;;;;;;18.00;61.10;;;;;;5022336;28;1078;-72
2023/01/26 14:36:21;;;;;;;;;;;18.00;61.20;;;;;;5027454;28;1317;-72
2023/01/26 14:38:48;;;;;;;;;;;18.00;61.10;;;;;;5039144;28;1287;-73
2023/01/26 14:41:18;;;;;;;;;;;18.00;61.20;;;;;;5018506;28;1969;-72
2023/01/26 14:43:43;;;;;;;;;;;18.00;61.20;;;;;;5055483;28;861;-73
2023/01/26 14:46:27;;;;;;;;;;;18.00;61.10;;;;;;5038307;28;1089;-73
2023/01/26 14:48:55;;;;;;;;;;;18.00;61.90;;;;;;5017507;28;1617;-72
2023/01/26 14:51:21;;;;;;;;;;;18.00;61.20;;;;;;5053089;28;812;-72
2023/01/26 14:54:10;;;;;;;;;;;18.00;61.20;;;;;;5020624;28;841;-73
2023/01/26 14:56:36;;;;;;;;;;;18.00;61.20;;;;;;5026719;28;1301;-72
2023/01/26 14:59:02;;;;;;;;;;;18.00;61.20;;;;;;5021329;28;1205;-72
2023/01/26 15:01:27;;;;;;;;;;;18.00;61.20;;;;;;5034763;28;2254;-73
2023/01/26 15:04:19;;;;;;;;;;;17.90;61.20;;;;;;5053349;28;1288;-73
2023/01/26 15:06:44;;;;;;;;;;;17.90;61.20;;;;;;5019619;28;995;-73
2023/01/26 15:09:24;;;;;;;;;;;17.90;61.20;;;;;;5021485;28;1473;-71
2023/01/26 15:12:15;;;;;;;;;;;17.90;61.20;;;;;;5021965;28;809;-70
2023/01/26 15:14:44;;;;;;;;;;;17.90;61.30;;;;;;5018038;28;847;-70
2023/01/26 15:17:25;;;;;;;;;;;17.90;61.30;;;;;;5017477;28;1260;-71
2023/01/26 15:19:50;;;;;;;;;;;17.90;61.30;;;;;;5053496;28;1914;-71
2023/01/26 15:22:20;;;;;;;;;;;17.90;61.30;;;;;;5019307;28;863;-71
2023/01/26 15:24:45;;;;;;;;;;;17.90;62.10;;;;;;5028391;28;1518;-71